createdAt,value
2022-10-19T00:01:23.454Z,101023.89
2022-10-19T00:03:55.168Z,101022.61
2022-10-19T00:06:28.266Z,101023.22
2022-10-19T00:09:04.388Z,101028.48
2022-10-19T00:11:35.903Z,101030.91
2022-10-19T00:14:05.126Z,101032.40
2022-10-19T00:16:38.062Z,101039.93
2022-10-19T00:19:13.598Z,101037.67
2022-10-19T00:21:42.435Z,101034.70
2022-10-19T00:24:11.233Z,101036.47
2022-10-19T00:26:39.608Z,101038.79
2022-10-19T00:29:08.360Z,101038.02
2022-10-19T00:31:36.742Z,101040.55
2022-10-19T00:34:05.188Z,101041.14
2022-10-19T00:36:37.703Z,101036.60
2022-10-19T00:39:10.853Z,101040.31
2022-10-19T00:41:39.758Z,101038.79
2022-10-19T00:44:30.526Z,101038.77
2022-10-19T00:47:04.881Z,101039.52
2022-10-19T00:49:38.781Z,101037.29
2022-10-19T00:52:13.321Z,101033.40
2022-10-19T00:54:44.172Z,101037.28
2022-10-19T00:57:13.455Z,101037.52
2022-10-19T00:59:44.387Z,101037.96
2022-10-19T01:02:13.513Z,101030.14
2022-10-19T01:04:48.198Z,101024.42
2022-10-19T01:07:16.819Z,101028.95
2022-10-19T01:09:45.647Z,101026.52
2022-10-19T01:12:46.781Z,101027.27
2022-10-19T01:16:00.817Z,101028.66
2022-10-19T01:19:07.668Z,101026.80
2022-10-19T01:21:46.127Z,101026.80
2022-10-19T01:24:36.999Z,101020.55
2022-10-19T01:27:45.399Z,101016.06
2022-10-19T01:30:42.280Z,101019.95
2022-10-19T01:33:21.998Z,101014.98
2022-10-19T01:36:18.889Z,101014.52
2022-10-19T01:39:17.613Z,101009.84
2022-10-19T01:42:01.412Z,101012.31
2022-10-19T01:44:41.682Z,101012.58
2022-10-19T01:47:27.446Z,101012.42
2022-10-19T01:50:02.207Z,101009.03
2022-10-19T01:52:33.041Z,101002.48
2022-10-19T01:55:04.434Z,101000.73
2022-10-19T01:57:39.701Z,101000.17
2022-10-19T02:00:10.844Z,101001.57
2022-10-19T02:02:44.859Z,101002.44
2022-10-19T02:05:14.432Z,101000.34
2022-10-19T02:07:48.501Z,100998.21
2022-10-19T02:10:18.168Z,100999.14
2022-10-19T02:12:48.049Z,101003.23
2022-10-19T02:15:22.411Z,101004.83
2022-10-19T02:17:56.886Z,101004.29
2022-10-19T02:20:27.387Z,101001.23
2022-10-19T02:22:55.710Z,100998.67
2022-10-19T02:25:25.183Z,100997.92
2022-10-19T02:27:53.576Z,100998.19
2022-10-19T02:30:22.413Z,101002.66
2022-10-19T02:32:51.303Z,101005.88
2022-10-19T02:35:19.678Z,101002.09
2022-10-19T02:37:47.967Z,100995.43
2022-10-19T02:40:16.528Z,100993.77
2022-10-19T02:43:04.400Z,100994.92
2022-10-19T02:45:39.325Z,100998.70
2022-10-19T02:48:14.284Z,101002.11
2022-10-19T02:50:47.755Z,100997.19
2022-10-19T02:53:16.807Z,101002.26
2022-10-19T02:55:47.745Z,101006.88
2022-10-19T02:58:16.379Z,101008.10
2022-10-19T03:00:44.643Z,101004.67
2022-10-19T03:03:12.935Z,101004.62
2022-10-19T03:05:41.160Z,101001.27
2022-10-19T03:08:09.408Z,100999.66
2022-10-19T03:10:37.656Z,100992.59
2022-10-19T03:13:05.821Z,100998.27
2022-10-19T03:15:34.066Z,100999.44
2022-10-19T03:18:02.273Z,100993.97
2022-10-19T03:20:30.456Z,100988.67
2022-10-19T03:22:58.715Z,100981.48
2022-10-19T03:25:27.263Z,100985.44
2022-10-19T03:27:55.600Z,100984.05
2022-10-19T03:30:23.798Z,100986.45
2022-10-19T03:32:51.989Z,100987.00
2022-10-19T03:35:20.203Z,100989.08
2022-10-19T03:37:48.377Z,100991.11
2022-10-19T03:40:16.970Z,100987.32
2022-10-19T03:42:45.170Z,100989.50
2022-10-19T03:45:13.634Z,100989.85
2022-10-19T03:47:41.796Z,100985.02
2022-10-19T03:50:13.231Z,100982.20
2022-10-19T03:52:41.424Z,100980.15
2022-10-19T03:55:10.715Z,100984.30
2022-10-19T03:57:38.898Z,100981.48
2022-10-19T04:00:09.984Z,100984.58
2022-10-19T04:02:38.194Z,100984.81
2022-10-19T04:05:07.658Z,100984.67
2022-10-19T04:07:36.007Z,100980.35
2022-10-19T04:10:04.983Z,100978.91
2022-10-19T04:12:33.387Z,100974.67
2022-10-19T04:15:01.601Z,100976.75
2022-10-19T04:17:29.940Z,100975.36
2022-10-19T04:19:58.119Z,100973.54
2022-10-19T04:22:26.300Z,100977.11
2022-10-19T04:24:54.614Z,100976.92
2022-10-19T04:27:22.845Z,100982.19
2022-10-19T04:29:51.048Z,100987.41
2022-10-19T04:32:19.209Z,100991.17
2022-10-19T04:34:47.419Z,100994.11
2022-10-19T04:37:15.568Z,100992.56
2022-10-19T04:39:44.683Z,100991.66
2022-10-19T04:42:12.845Z,100991.17
2022-10-19T04:44:41.055Z,100991.83
2022-10-19T04:47:09.276Z,100994.56
2022-10-19T04:49:37.518Z,100996.39
2022-10-19T04:52:05.688Z,100987.73
2022-10-19T04:54:33.910Z,100991.14
2022-10-19T04:57:02.124Z,100997.58
2022-10-19T04:59:30.294Z,100991.11
2022-10-19T05:01:58.513Z,100989.48
2022-10-19T05:04:27.211Z,100985.94
2022-10-19T05:06:58.472Z,100986.81
2022-10-19T05:09:26.720Z,100990.97
2022-10-19T05:11:54.927Z,100991.85
2022-10-19T05:14:23.337Z,100999.16
2022-10-19T05:16:51.615Z,101000.70
2022-10-19T05:19:19.867Z,100994.52
2022-10-19T05:21:48.063Z,100993.73
2022-10-19T05:24:16.264Z,100992.02
2022-10-19T05:26:44.546Z,100986.81
2022-10-19T05:29:13.993Z,100988.77
2022-10-19T05:31:42.525Z,100990.90
2022-10-19T05:34:10.868Z,100992.89
2022-10-19T05:36:40.908Z,101002.30
2022-10-19T05:39:15.012Z,100998.68
2022-10-19T05:41:47.887Z,101001.25
2022-10-19T05:44:20.086Z,101007.89
2022-10-19T05:46:49.876Z,101010.19
2022-10-19T05:49:21.421Z,101007.07
2022-10-19T05:51:50.413Z,101009.70
2022-10-19T05:54:20.269Z,101006.06
2022-10-19T05:56:50.043Z,101005.54
2022-10-19T05:59:21.518Z,101015.02
2022-10-19T06:01:49.999Z,101015.63
2022-10-19T06:04:18.254Z,101016.07
2022-10-19T06:06:46.559Z,101021.19
2022-10-19T06:09:14.993Z,101020.61
2022-10-19T06:11:43.508Z,101026.33
2022-10-19T06:14:15.597Z,101026.98
2022-10-19T06:16:46.134Z,101031.45
2022-10-19T06:19:14.766Z,101025.79
2022-10-19T06:21:45.843Z,101035.72
2022-10-19T06:24:14.348Z,101038.35
2022-10-19T06:26:42.862Z,101037.46
2022-10-19T06:29:11.677Z,101035.80
2022-10-19T06:31:40.006Z,101036.92
2022-10-19T06:34:08.344Z,101040.52
2022-10-19T06:36:36.650Z,101044.73
2022-10-19T06:39:04.855Z,101050.58
2022-10-19T06:41:34.246Z,101052.53
2022-10-19T06:44:02.612Z,101051.33
2022-10-19T06:46:32.315Z,101060.63
2022-10-19T06:49:02.179Z,101057.64
2022-10-19T06:51:34.029Z,101058.88
2022-10-19T06:54:02.344Z,101057.40
2022-10-19T06:56:30.685Z,101058.00
2022-10-19T06:58:59.446Z,101059.60
2022-10-19T07:01:27.934Z,101058.64
2022-10-19T07:03:56.348Z,101056.89
2022-10-19T07:06:27.195Z,101059.08
2022-10-19T07:08:55.547Z,101061.42
2022-10-19T07:11:23.811Z,101063.29
2022-10-19T07:13:53.542Z,101065.85
2022-10-19T07:16:22.518Z,101067.21
2022-10-19T07:18:53.222Z,101062.48
2022-10-19T07:21:23.439Z,101064.74
2022-10-19T07:23:52.066Z,101074.59
2022-10-19T07:26:27.155Z,101076.45
2022-10-19T07:28:58.043Z,101078.59
2022-10-19T07:31:29.434Z,101081.90
2022-10-19T07:34:01.482Z,101084.27
2022-10-19T07:36:33.149Z,101086.77
2022-10-19T07:39:05.348Z,101086.56
2022-10-19T07:41:37.551Z,101091.63
2022-10-19T07:44:06.180Z,101091.80
2022-10-19T07:46:35.821Z,101085.56
2022-10-19T07:49:09.793Z,101085.02
2022-10-19T07:51:38.597Z,101092.73
2022-10-19T07:54:07.019Z,101095.19
2022-10-19T07:56:35.968Z,101090.16
2022-10-19T07:59:05.501Z,101087.49
2022-10-19T08:01:41.224Z,101094.42
2022-10-19T08:06:57.815Z,101099.17
2022-10-19T08:09:53.261Z,101099.19
2022-10-19T08:12:15.638Z,101093.27
2022-10-19T08:14:44.029Z,101093.53
2022-10-19T08:17:16.798Z,101094.94
2022-10-19T08:19:47.165Z,101096.90
2022-10-19T08:22:15.545Z,101094.69
2022-10-19T08:24:43.821Z,101092.21
2022-10-19T08:27:12.038Z,101090.69
2022-10-19T08:29:40.353Z,101088.75
2022-10-19T08:32:08.877Z,101089.14
2022-10-19T08:34:37.186Z,101086.13
2022-10-19T08:37:14.712Z,101091.00
2022-10-19T08:39:54.042Z,101092.37
2022-10-19T08:42:53.694Z,101084.28
2022-10-19T08:45:32.267Z,101083.91
2022-10-19T08:48:23.953Z,101092.70
2022-10-19T08:50:53.460Z,101098.27
2022-10-19T08:53:30.436Z,101106.58
2022-10-19T08:56:49.274Z,101104.17
2022-10-19T08:59:39.188Z,101104.39
2022-10-19T09:02:42.216Z,101101.52
2022-10-19T09:05:23.899Z,101100.11
2022-10-19T09:07:54.578Z,101097.98
2022-10-19T09:10:29.045Z,101097.70
2022-10-19T09:13:15.152Z,101100.17
2022-10-19T09:15:47.763Z,101096.89
2022-10-19T09:18:24.384Z,101097.35
2022-10-19T09:21:28.157Z,101101.39
2022-10-19T09:24:16.116Z,101095.20
2022-10-19T09:26:53.310Z,101095.59
2022-10-19T09:29:47.855Z,101103.36
2022-10-19T09:32:23.710Z,101105.93
2022-10-19T09:34:57.721Z,101108.06
2022-10-19T09:37:26.892Z,101104.94
2022-10-19T09:39:56.500Z,101110.45
2022-10-19T09:42:33.676Z,101110.97
2022-10-19T09:45:19.779Z,101120.17
2022-10-19T09:47:48.826Z,101118.27
2022-10-19T09:50:27.154Z,101119.87
2022-10-19T09:53:05.631Z,101123.88
2022-10-19T09:55:39.554Z,101124.48
2022-10-19T09:58:13.658Z,101123.81
2022-10-19T10:00:50.655Z,101125.95
2022-10-19T10:03:43.731Z,101128.66
2022-10-19T10:06:17.798Z,101124.89
2022-10-19T10:08:50.668Z,101129.25
2022-10-19T10:11:34.149Z,101128.03
2022-10-19T10:14:20.385Z,101128.30
2022-10-19T10:16:54.182Z,101131.84
2022-10-19T10:19:27.692Z,101127.15
2022-10-19T10:21:58.228Z,101125.77
2022-10-19T10:24:29.902Z,101124.10
2022-10-19T10:27:04.839Z,101128.75
2022-10-19T10:29:36.699Z,101132.74
2022-10-19T10:32:06.068Z,101126.55
2022-10-19T10:34:51.784Z,101121.29
2022-10-19T10:37:40.928Z,101123.70
2022-10-19T10:40:39.202Z,101127.98
2022-10-19T10:43:17.840Z,101121.81
2022-10-19T10:45:49.791Z,101120.88
2022-10-19T10:48:38.973Z,101122.89
2022-10-19T10:51:49.289Z,101115.55
2022-10-19T10:54:27.304Z,101115.90
2022-10-19T10:57:09.501Z,101118.96
2022-10-19T10:59:57.752Z,101123.78
2022-10-19T11:03:07.776Z,101123.48
2022-10-19T11:05:46.665Z,101122.20
2022-10-19T11:08:26.504Z,101120.13
2022-10-19T11:11:04.820Z,101116.40
2022-10-19T11:13:51.609Z,101115.73
2022-10-19T11:16:26.100Z,101114.01
2022-10-19T11:19:08.076Z,101118.15
2022-10-19T11:22:06.724Z,101122.90
2022-10-19T11:25:25.236Z,101117.00
2022-10-19T11:28:34.994Z,101116.08
2022-10-19T11:31:19.319Z,101119.76
2022-10-19T11:34:23.644Z,101122.61
2022-10-19T11:37:10.123Z,101121.84
2022-10-19T11:40:08.673Z,101118.67
2022-10-19T11:43:04.998Z,101120.27
2022-10-19T11:46:03.978Z,101121.41
2022-10-19T11:49:06.381Z,101120.21
2022-10-19T11:51:57.653Z,101120.70
2022-10-19T11:54:41.062Z,101119.64
2022-10-19T11:57:37.015Z,101117.59
2022-10-19T12:00:38.190Z,101112.15
2022-10-19T12:03:50.168Z,101111.53
2022-10-19T12:06:54.368Z,101117.14
2022-10-19T12:10:01.594Z,101119.27
2022-10-19T12:12:41.240Z,101119.05
2022-10-19T12:15:12.282Z,101115.65
2022-10-19T12:17:45.055Z,101120.42
2022-10-19T12:20:42.995Z,101121.76
2022-10-19T12:23:28.598Z,101122.42
2022-10-19T12:25:59.818Z,101118.83
2022-10-19T12:28:35.368Z,101124.38
2022-10-19T12:31:06.036Z,101123.35
2022-10-19T12:34:18.199Z,101124.16
2022-10-19T12:37:12.055Z,101121.66
2022-10-19T12:40:04.916Z,101122.07
2022-10-19T12:42:51.885Z,101119.37
2022-10-19T12:45:32.928Z,101122.39
2022-10-19T12:48:14.417Z,101124.55
2022-10-19T12:50:48.696Z,101130.16
2022-10-19T12:53:38.375Z,101129.41
2022-10-19T12:56:09.680Z,101127.07
2022-10-19T12:58:46.711Z,101127.04
2022-10-19T13:01:36.022Z,101128.63
2022-10-19T13:04:22.496Z,101127.16
2022-10-19T13:07:08.263Z,101127.58
2022-10-19T13:09:40.447Z,101120.10
2022-10-19T13:12:19.364Z,101122.73
2022-10-19T13:15:04.774Z,101128.33
2022-10-19T13:17:49.084Z,101131.35
2022-10-19T13:20:17.272Z,101133.42
2022-10-19T13:23:10.986Z,101130.04
2022-10-19T13:25:43.481Z,101127.05
2022-10-19T13:28:15.229Z,101127.10
2022-10-19T13:30:43.892Z,101129.85
2022-10-19T13:33:30.253Z,101132.77
2022-10-19T13:35:58.426Z,101131.08
2022-10-19T13:38:48.598Z,101132.41
2022-10-19T13:41:25.913Z,101133.61
2022-10-19T13:44:12.450Z,101134.49
2022-10-19T13:47:00.791Z,101134.73
2022-10-19T13:49:52.352Z,101132.35
2022-10-19T13:52:54.767Z,101132.86
2022-10-19T13:55:47.225Z,101133.84
2022-10-19T13:58:45.947Z,101128.19
2022-10-19T14:01:43.967Z,101120.80
2022-10-19T14:04:45.020Z,101114.96
2022-10-19T14:07:25.341Z,101111.88
2022-10-19T14:10:32.660Z,101104.45
2022-10-19T14:13:05.437Z,101109.76
2022-10-19T14:15:35.230Z,101115.61
2022-10-19T14:18:05.886Z,101113.77
2022-10-19T14:20:39.148Z,101111.98
2022-10-19T14:23:30.154Z,101107.08
2022-10-19T14:26:03.860Z,101099.59
2022-10-19T14:28:34.137Z,101103.61
2022-10-19T14:31:10.699Z,101098.06
2022-10-19T14:33:45.939Z,101106.95
2022-10-19T14:36:17.777Z,101101.90
2022-10-19T14:39:06.109Z,101098.52
2022-10-19T14:42:10.732Z,101107.52
2022-10-19T14:44:44.121Z,101108.02
2022-10-19T14:47:26.855Z,101104.44
2022-10-19T14:49:55.166Z,101106.47
2022-10-19T14:52:36.378Z,101105.55
2022-10-19T14:55:17.831Z,101106.02
2022-10-19T14:57:52.135Z,101107.03
2022-10-19T15:00:23.870Z,101109.84
2022-10-19T15:03:05.172Z,101113.75
2022-10-19T15:05:37.782Z,101113.27
2022-10-19T15:08:21.455Z,101114.09
2022-10-19T15:10:50.667Z,101114.98
2022-10-19T15:13:34.633Z,101114.02
2022-10-19T15:16:02.881Z,101117.32
2022-10-19T15:18:49.494Z,101116.61
2022-10-19T15:21:21.171Z,101111.36
2022-10-19T15:23:52.206Z,101110.60
2022-10-19T15:26:24.450Z,101108.34
2022-10-19T15:28:55.633Z,101107.79
2022-10-19T15:31:29.370Z,101106.35
2022-10-19T15:34:00.802Z,101106.84
2022-10-19T15:36:38.928Z,101106.81
2022-10-19T15:39:25.095Z,101113.80
2022-10-19T15:41:53.946Z,101115.28
2022-10-19T15:44:43.625Z,101116.54
2022-10-19T15:47:19.297Z,101115.24
2022-10-19T15:50:01.605Z,101114.52
2022-10-19T15:52:34.595Z,101113.26
2022-10-19T15:55:03.179Z,101117.16
2022-10-19T15:57:39.306Z,101112.61
2022-10-19T16:00:16.659Z,101115.11
2022-10-19T16:02:45.039Z,101119.48
2022-10-19T16:05:13.276Z,101121.35
2022-10-19T16:08:11.609Z,101118.06
2022-10-19T16:10:40.830Z,101120.38
2022-10-19T16:13:09.087Z,101125.77
2022-10-19T16:15:37.435Z,101122.61
2022-10-19T16:18:05.693Z,101123.60
2022-10-19T16:20:33.916Z,101121.77
2022-10-19T16:23:02.162Z,101123.23
2022-10-19T16:25:30.522Z,101122.30
2022-10-19T16:27:59.001Z,101127.72
2022-10-19T16:30:27.346Z,101121.75
2022-10-19T16:32:55.628Z,101126.35
2022-10-19T16:35:24.534Z,101126.91
2022-10-19T16:37:53.106Z,101133.02
2022-10-19T16:40:21.758Z,101132.11
2022-10-19T16:45:33.081Z,101142.37
2022-10-19T16:48:01.498Z,101144.06
2022-10-19T16:50:29.790Z,101148.33
2022-10-19T16:53:10.135Z,101150.60
2022-10-19T16:55:40.827Z,101151.16
2022-10-19T16:58:09.143Z,101153.25
2022-10-19T17:00:37.499Z,101163.59
2022-10-19T17:03:05.858Z,101174.14
2022-10-19T17:05:39.190Z,101183.26
2022-10-19T17:08:13.451Z,101186.45
2022-10-19T17:10:41.860Z,101188.54
2022-10-19T17:13:10.083Z,101192.41
2022-10-19T17:15:42.965Z,101192.30
2022-10-19T17:18:11.898Z,101194.90
2022-10-19T17:20:40.221Z,101197.52
2022-10-19T17:23:08.598Z,101192.98
2022-10-19T17:25:37.084Z,101195.46
2022-10-19T17:37:17.743Z,101212.85
2022-10-19T17:39:46.134Z,101215.67
2022-10-19T17:42:14.382Z,101221.32
2022-10-19T17:44:42.656Z,101224.80
2022-10-19T17:47:10.859Z,101229.20
2022-10-19T17:49:39.239Z,101234.10
2022-10-19T17:52:07.548Z,101234.89
2022-10-19T17:54:43.670Z,101238.33
2022-10-19T17:57:22.706Z,101236.58
2022-10-19T17:59:55.693Z,101240.98
2022-10-19T18:02:24.022Z,101237.98
2022-10-19T18:04:52.320Z,101239.91
2022-10-19T18:07:22.100Z,101245.71
2022-10-19T18:09:50.336Z,101244.55
2022-10-19T18:12:18.633Z,101244.30
2022-10-19T18:14:46.811Z,101247.55
2022-10-19T18:17:15.051Z,101249.77
2022-10-19T18:19:43.264Z,101250.94
2022-10-19T18:22:11.480Z,101250.38
2022-10-19T18:24:39.675Z,101251.38
2022-10-19T18:27:07.967Z,101252.04
2022-10-19T18:29:36.203Z,101252.66
2022-10-19T18:34:38.704Z,101253.89
2022-10-19T18:37:07.416Z,101253.39
2022-10-19T18:39:36.040Z,101254.05
2022-10-19T18:42:04.244Z,101252.84
2022-10-19T18:44:33.728Z,101250.58
2022-10-19T18:47:02.304Z,101247.80
2022-10-19T18:49:30.709Z,101248.38
2022-10-19T18:51:59.206Z,101248.80
2022-10-19T18:54:28.146Z,101248.48
2022-10-19T18:56:56.500Z,101244.46
2022-10-19T18:59:24.796Z,101248.83
2022-10-19T19:01:53.165Z,101250.42
2022-10-19T19:04:21.620Z,101244.88
2022-10-19T19:06:54.668Z,101244.65
2022-10-19T19:09:26.712Z,101250.92
2022-10-19T19:11:57.897Z,101253.55
2022-10-19T19:14:26.430Z,101254.15
2022-10-19T19:16:54.773Z,101255.27
2022-10-19T19:19:25.392Z,101260.15
2022-10-19T19:21:53.898Z,101263.97
2022-10-19T19:24:23.277Z,101265.64
2022-10-19T19:26:54.334Z,101264.83
2022-10-19T19:29:23.221Z,101268.52
2022-10-19T19:31:53.547Z,101268.91
2022-10-19T19:34:22.431Z,101271.91
2022-10-19T19:36:50.738Z,101274.24
2022-10-19T19:39:21.230Z,101271.57
2022-10-19T19:41:50.328Z,101272.21
2022-10-19T19:44:19.256Z,101273.53
2022-10-19T19:46:47.608Z,101272.59
2022-10-19T19:49:16.366Z,101279.70
2022-10-19T19:51:44.609Z,101279.30
2022-10-19T19:54:12.892Z,101280.77
2022-10-19T19:56:42.510Z,101283.64
2022-10-19T19:59:12.925Z,101280.24
2022-10-19T20:01:41.680Z,101276.27
2022-10-19T20:04:11.044Z,101280.95
2022-10-19T20:06:40.809Z,101282.41
2022-10-19T20:09:10.759Z,101284.97
2022-10-19T20:11:42.426Z,101285.83
2022-10-19T20:14:12.711Z,101288.34
2022-10-19T20:16:41.055Z,101291.38
2022-10-19T20:19:12.983Z,101296.11
2022-10-19T20:21:41.522Z,101294.44
2022-10-19T20:24:10.058Z,101297.88
2022-10-19T20:26:38.489Z,101291.59
2022-10-19T20:29:07.043Z,101292.33
2022-10-19T20:31:39.679Z,101295.17
2022-10-19T20:34:11.256Z,101297.44
2022-10-19T20:44:59.934Z,101293.99
2022-10-19T20:47:28.168Z,101296.95
2022-10-19T20:49:56.540Z,101300.02
2022-10-19T20:52:24.875Z,101303.58
2022-10-19T20:54:53.087Z,101304.89
2022-10-19T20:57:21.262Z,101306.52
2022-10-19T20:59:49.703Z,101305.88
2022-10-19T21:02:17.958Z,101304.21
2022-10-19T21:04:46.275Z,101307.20
2022-10-19T21:07:14.589Z,101310.91
2022-10-19T21:09:42.786Z,101316.13
2022-10-19T21:12:11.030Z,101316.34
2022-10-19T21:14:39.295Z,101314.11
2022-10-19T21:17:07.565Z,101319.47
2022-10-19T21:19:35.847Z,101328.65
2022-10-19T21:22:04.171Z,101326.51
2022-10-19T21:24:36.108Z,101326.12
2022-10-19T21:27:07.653Z,101320.90
2022-10-19T21:29:36.834Z,101325.06
2022-10-19T21:32:05.755Z,101319.33
2022-10-19T21:34:34.168Z,101316.06
2022-10-19T21:37:02.631Z,101318.54
2022-10-19T21:39:31.540Z,101322.02
2022-10-19T21:41:59.721Z,101321.79
2022-10-19T21:44:27.937Z,101323.48
2022-10-19T21:46:56.180Z,101320.59
2022-10-19T21:49:24.390Z,101324.20
2022-10-19T21:51:54.570Z,101326.77
2022-10-19T21:54:26.521Z,101329.29
2022-10-19T21:57:01.281Z,101330.77
2022-10-19T21:59:29.469Z,101329.90
2022-10-19T22:01:57.781Z,101332.30
2022-10-19T22:04:26.081Z,101335.75
2022-10-19T22:06:54.333Z,101337.36
2022-10-19T22:09:22.968Z,101336.98
2022-10-19T22:11:51.188Z,101338.06
2022-10-19T22:14:19.530Z,101339.77
2022-10-19T22:16:47.797Z,101338.38
2022-10-19T22:19:16.350Z,101335.42
2022-10-19T22:21:44.563Z,101334.75
2022-10-19T22:24:15.427Z,101334.44
2022-10-19T22:26:47.588Z,101330.98
2022-10-19T22:29:15.966Z,101335.61
2022-10-19T22:31:44.254Z,101335.67
2022-10-19T22:34:17.783Z,101335.96
2022-10-19T22:36:46.344Z,101338.70
2022-10-19T22:39:15.446Z,101343.39
2022-10-19T22:51:07.608Z,101346.23
2022-10-19T22:53:35.868Z,101352.28
2022-10-19T22:56:05.021Z,101349.02
2022-10-19T22:58:33.291Z,101346.08
2022-10-19T23:01:09.474Z,101349.40
2022-10-19T23:03:41.405Z,101344.81
2022-10-19T23:06:13.574Z,101348.57
2022-10-19T23:08:43.669Z,101350.38
2022-10-19T23:11:12.480Z,101352.58
2022-10-19T23:13:41.251Z,101352.17
2022-10-19T23:16:10.276Z,101351.91
2022-10-19T23:18:41.487Z,101352.49
2022-10-19T23:21:13.241Z,101351.92
2022-10-19T23:23:42.234Z,101351.09
2022-10-19T23:26:15.681Z,101349.36
2022-10-19T23:28:48.457Z,101350.92
2022-10-19T23:31:24.749Z,101345.73
2022-10-19T23:33:54.460Z,101345.70
2022-10-19T23:36:27.295Z,101343.98
2022-10-19T23:38:58.301Z,101344.84
2022-10-19T23:41:27.275Z,101343.45
2022-10-19T23:43:56.024Z,101341.40
2022-10-19T23:46:24.259Z,101342.49
2022-10-19T23:48:52.512Z,101339.11
2022-10-19T23:51:21.806Z,101335.60
2022-10-19T23:53:52.749Z,101332.65
2022-10-19T23:56:29.587Z,101329.89
2022-10-19T23:58:58.112Z,101330.69
